sensor_id;sensor_type;location;lat;lon;timestamp;P1;P2;P0
49064;PMS5003;34876;51.464;-0.150;2022-12-18T00:01:31;6;6;
49064;PMS5003;34876;51.464;-0.150;2022-12-18T00:04:02;8;7;
49064;PMS5003;34876;51.464;-0.150;2022-12-18T00:06:33;6;6;
49064;PMS5003;34876;51.464;-0.150;2022-12-18T00:09:03;7;7;
49064;PMS5003;34876;51.464;-0.150;2022-12-18T00:11:32;6;6;
49064;PMS5003;34876;51.464;-0.150;2022-12-18T00:14:01;7;7;
49064;PMS5003;34876;51.464;-0.150;2022-12-18T00:16:30;10;7;
49064;PMS5003;34876;51.464;-0.150;2022-12-18T00:18:59;7;6;
49064;PMS5003;34876;51.464;-0.150;2022-12-18T00:21:29;10;9;
49064;PMS5003;34876;51.464;-0.150;2022-12-18T00:23:59;9;9;
49064;PMS5003;34876;51.464;-0.150;2022-12-18T00:26:30;7;6;
49064;PMS5003;34876;51.464;-0.150;2022-12-18T00:29:00;8;8;
49064;PMS5003;34876;51.464;-0.150;2022-12-18T00:31:31;10;8;
49064;PMS5003;34876;51.464;-0.150;2022-12-18T00:34:02;6;6;
49064;PMS5003;34876;51.464;-0.150;2022-12-18T00:36:33;8;7;
49064;PMS5003;34876;51.464;-0.150;2022-12-18T00:39:04;7;7;
49064;PMS5003;34876;51.464;-0.150;2022-12-18T00:41:33;9;7;
49064;PMS5003;34876;51.464;-0.150;2022-12-18T00:44:06;8;8;
49064;PMS5003;34876;51.464;-0.150;2022-12-18T00:46:37;7;7;
49064;PMS5003;34876;51.464;-0.150;2022-12-18T00:49:07;9;8;
49064;PMS5003;34876;51.464;-0.150;2022-12-18T00:51:36;8;8;
49064;PMS5003;34876;51.464;-0.150;2022-12-18T00:54:05;9;8;
49064;PMS5003;34876;51.464;-0.150;2022-12-18T00:56:35;8;8;
49064;PMS5003;34876;51.464;-0.150;2022-12-18T00:59:04;10;8;
49064;PMS5003;34876;51.464;-0.150;2022-12-18T01:03:29;45;41;
49064;PMS5003;34876;51.464;-0.150;2022-12-18T01:05:58;41;36;
49064;PMS5003;34876;51.464;-0.150;2022-12-18T01:08:28;44;40;
49064;PMS5003;34876;51.464;-0.150;2022-12-18T01:10:57;39;39;
49064;PMS5003;34876;51.464;-0.150;2022-12-18T01:13:26;45;41;
49064;PMS5003;34876;51.464;-0.150;2022-12-18T01:15:54;36;34;
49064;PMS5003;34876;51.464;-0.150;2022-12-18T01:18:23;48;41;
49064;PMS5003;34876;51.464;-0.150;2022-12-18T01:20:52;37;35;
49064;PMS5003;34876;51.464;-0.150;2022-12-18T01:23:21;39;35;
49064;PMS5003;34876;51.464;-0.150;2022-12-18T01:25:50;38;35;
49064;PMS5003;34876;51.464;-0.150;2022-12-18T01:28:21;42;39;
49064;PMS5003;34876;51.464;-0.150;2022-12-18T01:30:49;38;35;
49064;PMS5003;34876;51.464;-0.150;2022-12-18T01:33:18;41;36;
49064;PMS5003;34876;51.464;-0.150;2022-12-18T01:35:47;43;39;
49064;PMS5003;34876;51.464;-0.150;2022-12-18T01:38:16;37;35;
49064;PMS5003;34876;51.464;-0.150;2022-12-18T01:40:44;42;39;
49064;PMS5003;34876;51.464;-0.150;2022-12-18T01:43:13;38;37;
49064;PMS5003;34876;51.464;-0.150;2022-12-18T01:45:42;36;36;
49064;PMS5003;34876;51.464;-0.150;2022-12-18T01:48:11;37;36;
49064;PMS5003;34876;51.464;-0.150;2022-12-18T01:50:40;34;32;
49064;PMS5003;34876;51.464;-0.150;2022-12-18T01:53:11;35;33;
49064;PMS5003;34876;51.464;-0.150;2022-12-18T01:55:43;40;37;
49064;PMS5003;34876;51.464;-0.150;2022-12-18T01:58:18;37;35;
49064;PMS5003;34876;51.464;-0.150;2022-12-18T02:00:50;40;36;
49064;PMS5003;34876;51.464;-0.150;2022-12-18T02:03:18;37;35;
49064;PMS5003;34876;51.464;-0.150;2022-12-18T02:05:49;35;32;
49064;PMS5003;34876;51.464;-0.150;2022-12-18T02:08:28;44;39;
49064;PMS5003;34876;51.464;-0.150;2022-12-18T02:11:04;39;37;
49064;PMS5003;34876;51.464;-0.150;2022-12-18T02:13:40;41;38;
49064;PMS5003;34876;51.464;-0.150;2022-12-18T02:16:17;38;35;
49064;PMS5003;34876;51.464;-0.150;2022-12-18T02:18:53;38;36;
49064;PMS5003;34876;51.464;-0.150;2022-12-18T02:21:28;41;37;
49064;PMS5003;34876;51.464;-0.150;2022-12-18T02:24:11;37;34;
49064;PMS5003;34876;51.464;-0.150;2022-12-18T02:26:49;41;36;
49064;PMS5003;34876;51.464;-0.150;2022-12-18T02:29:24;38;32;
49064;PMS5003;34876;51.464;-0.150;2022-12-18T02:31:58;37;35;
49064;PMS5003;34876;51.464;-0.150;2022-12-18T02:34:28;42;38;
49064;PMS5003;34876;51.464;-0.150;2022-12-18T02:37:01;39;37;
49064;PMS5003;34876;51.464;-0.150;2022-12-18T02:39:34;41;36;
49064;PMS5003;34876;51.464;-0.150;2022-12-18T02:42:04;49;40;
49064;PMS5003;34876;51.464;-0.150;2022-12-18T02:44:33;35;32;
49064;PMS5003;34876;51.464;-0.150;2022-12-18T02:47:02;34;33;
49064;PMS5003;34876;51.464;-0.150;2022-12-18T02:49:34;35;33;
49064;PMS5003;34876;51.464;-0.150;2022-12-18T02:52:10;33;33;
49064;PMS5003;34876;51.464;-0.150;2022-12-18T02:54:53;34;32;
49064;PMS5003;34876;51.464;-0.150;2022-12-18T02:57:30;33;32;
49064;PMS5003;34876;51.464;-0.150;2022-12-18T03:00:04;35;33;
49064;PMS5003;34876;51.464;-0.150;2022-12-18T03:02:38;47;36;
49064;PMS5003;34876;51.464;-0.150;2022-12-18T03:05:14;44;41;
49064;PMS5003;34876;51.464;-0.150;2022-12-18T03:07:47;32;31;
49064;PMS5003;34876;51.464;-0.150;2022-12-18T03:10:23;36;33;
49064;PMS5003;34876;51.464;-0.150;2022-12-18T03:12:58;40;36;
49064;PMS5003;34876;51.464;-0.150;2022-12-18T03:15:34;37;32;
49064;PMS5003;34876;51.464;-0.150;2022-12-18T03:18:06;41;37;
49064;PMS5003;34876;51.464;-0.150;2022-12-18T03:20:39;38;34;
49064;PMS5003;34876;51.464;-0.150;2022-12-18T03:23:13;42;35;
49064;PMS5003;34876;51.464;-0.150;2022-12-18T03:25:45;44;34;
49064;PMS5003;34876;51.464;-0.150;2022-12-18T03:28:19;37;34;
49064;PMS5003;34876;51.464;-0.150;2022-12-18T03:30:51;32;30;
49064;PMS5003;34876;51.464;-0.150;2022-12-18T03:33:24;31;31;
49064;PMS5003;34876;51.464;-0.150;2022-12-18T03:35:56;32;29;
49064;PMS5003;34876;51.464;-0.150;2022-12-18T03:38:25;39;37;
49064;PMS5003;34876;51.464;-0.150;2022-12-18T03:40:56;36;33;
49064;PMS5003;34876;51.464;-0.150;2022-12-18T03:43:34;31;30;
49064;PMS5003;34876;51.464;-0.150;2022-12-18T03:46:11;37;33;
49064;PMS5003;34876;51.464;-0.150;2022-12-18T03:48:48;36;32;
49064;PMS5003;34876;51.464;-0.150;2022-12-18T03:51:22;46;36;
49064;PMS5003;34876;51.464;-0.150;2022-12-18T03:53:57;34;30;
49064;PMS5003;34876;51.464;-0.150;2022-12-18T03:56:28;35;30;
49064;PMS5003;34876;51.464;-0.150;2022-12-18T03:59:00;41;31;
49064;PMS5003;34876;51.464;-0.150;2022-12-18T04:01:32;39;32;
49064;PMS5003;34876;51.464;-0.150;2022-12-18T04:04:03;41;35;
49064;PMS5003;34876;51.464;-0.150;2022-12-18T04:06:35;37;32;
49064;PMS5003;34876;51.464;-0.150;2022-12-18T04:09:06;38;34;
49064;PMS5003;34876;51.464;-0.150;2022-12-18T04:11:36;32;32;
49064;PMS5003;34876;51.464;-0.150;2022-12-18T04:14:05;32;29;
49064;PMS5003;34876;51.464;-0.150;2022-12-18T04:16:34;37;35;
49064;PMS5003;34876;51.464;-0.150;2022-12-18T04:19:04;36;33;
49064;PMS5003;34876;51.464;-0.150;2022-12-18T04:21:33;38;34;
49064;PMS5003;34876;51.464;-0.150;2022-12-18T04:24:02;40;39;
49064;PMS5003;34876;51.464;-0.150;2022-12-18T04:26:32;39;32;
49064;PMS5003;34876;51.464;-0.150;2022-12-18T04:29:01;35;33;
49064;PMS5003;34876;51.464;-0.150;2022-12-18T04:31:30;34;31;
49064;PMS5003;34876;51.464;-0.150;2022-12-18T04:33:59;34;32;
49064;PMS5003;34876;51.464;-0.150;2022-12-18T04:36:28;39;31;
49064;PMS5003;34876;51.464;-0.150;2022-12-18T04:38:57;32;29;
49064;PMS5003;34876;51.464;-0.150;2022-12-18T04:41:25;34;32;
49064;PMS5003;34876;51.464;-0.150;2022-12-18T04:43:54;33;31;
49064;PMS5003;34876;51.464;-0.150;2022-12-18T04:46:23;41;34;
49064;PMS5003;34876;51.464;-0.150;2022-12-18T04:48:52;29;25;
49064;PMS5003;34876;51.464;-0.150;2022-12-18T04:51:21;33;31;
49064;PMS5003;34876;51.464;-0.150;2022-12-18T04:53:50;31;30;
49064;PMS5003;34876;51.464;-0.150;2022-12-18T04:56:18;37;33;
49064;PMS5003;34876;51.464;-0.150;2022-12-18T04:58:48;32;28;
49064;PMS5003;34876;51.464;-0.150;2022-12-18T05:01:17;31;30;
49064;PMS5003;34876;51.464;-0.150;2022-12-18T05:03:46;35;34;
49064;PMS5003;34876;51.464;-0.150;2022-12-18T05:06:15;36;29;
49064;PMS5003;34876;51.464;-0.150;2022-12-18T05:08:44;33;31;
49064;PMS5003;34876;51.464;-0.150;2022-12-18T05:11:14;38;35;
49064;PMS5003;34876;51.464;-0.150;2022-12-18T05:13:43;32;29;
49064;PMS5003;34876;51.464;-0.150;2022-12-18T05:16:13;35;31;
49064;PMS5003;34876;51.464;-0.150;2022-12-18T05:18:43;29;29;
49064;PMS5003;34876;51.464;-0.150;2022-12-18T05:21:12;34;30;
49064;PMS5003;34876;51.464;-0.150;2022-12-18T05:23:40;30;28;
49064;PMS5003;34876;51.464;-0.150;2022-12-18T05:26:09;35;29;
49064;PMS5003;34876;51.464;-0.150;2022-12-18T05:28:43;32;27;
49064;PMS5003;34876;51.464;-0.150;2022-12-18T05:31:14;38;31;
49064;PMS5003;34876;51.464;-0.150;2022-12-18T05:33:43;32;31;
49064;PMS5003;34876;51.464;-0.150;2022-12-18T05:36:12;36;33;
49064;PMS5003;34876;51.464;-0.150;2022-12-18T05:38:41;37;33;
49064;PMS5003;34876;51.464;-0.150;2022-12-18T05:41:10;31;31;
49064;PMS5003;34876;51.464;-0.150;2022-12-18T05:43:39;29;28;
49064;PMS5003;34876;51.464;-0.150;2022-12-18T05:46:10;27;27;
49064;PMS5003;34876;51.464;-0.150;2022-12-18T05:48:41;37;34;
49064;PMS5003;34876;51.464;-0.150;2022-12-18T05:51:11;52;42;
49064;PMS5003;34876;51.464;-0.150;2022-12-18T05:53:42;28;28;
49064;PMS5003;34876;51.464;-0.150;2022-12-18T05:56:11;32;31;
49064;PMS5003;34876;51.464;-0.150;2022-12-18T05:58:42;37;28;
49064;PMS5003;34876;51.464;-0.150;2022-12-18T06:01:12;32;27;
49064;PMS5003;34876;51.464;-0.150;2022-12-18T06:03:43;30;26;
49064;PMS5003;34876;51.464;-0.150;2022-12-18T06:06:13;41;39;
49064;PMS5003;34876;51.464;-0.150;2022-12-18T06:08:43;39;35;
49064;PMS5003;34876;51.464;-0.150;2022-12-18T06:11:13;32;28;
49064;PMS5003;34876;51.464;-0.150;2022-12-18T06:13:44;38;34;
49064;PMS5003;34876;51.464;-0.150;2022-12-18T06:16:13;31;31;
49064;PMS5003;34876;51.464;-0.150;2022-12-18T06:18:42;38;32;
49064;PMS5003;34876;51.464;-0.150;2022-12-18T06:21:11;28;28;
49064;PMS5003;34876;51.464;-0.150;2022-12-18T06:23:40;35;30;
49064;PMS5003;34876;51.464;-0.150;2022-12-18T06:26:09;35;31;
49064;PMS5003;34876;51.464;-0.150;2022-12-18T06:28:39;32;29;
49064;PMS5003;34876;51.464;-0.150;2022-12-18T06:31:09;43;36;
49064;PMS5003;34876;51.464;-0.150;2022-12-18T06:33:38;30;29;
49064;PMS5003;34876;51.464;-0.150;2022-12-18T06:36:08;33;32;
49064;PMS5003;34876;51.464;-0.150;2022-12-18T06:38:40;34;34;
49064;PMS5003;34876;51.464;-0.150;2022-12-18T06:41:10;28;27;
49064;PMS5003;34876;51.464;-0.150;2022-12-18T06:43:41;27;25;
49064;PMS5003;34876;51.464;-0.150;2022-12-18T06:46:11;37;34;
49064;PMS5003;34876;51.464;-0.150;2022-12-18T06:48:40;34;31;
49064;PMS5003;34876;51.464;-0.150;2022-12-18T06:51:09;32;30;
49064;PMS5003;34876;51.464;-0.150;2022-12-18T06:53:38;33;31;
49064;PMS5003;34876;51.464;-0.150;2022-12-18T06:56:07;34;30;
49064;PMS5003;34876;51.464;-0.150;2022-12-18T06:58:36;31;27;
49064;PMS5003;34876;51.464;-0.150;2022-12-18T07:01:05;28;26;
49064;PMS5003;34876;51.464;-0.150;2022-12-18T07:03:35;38;33;
49064;PMS5003;34876;51.464;-0.150;2022-12-18T07:06:05;34;30;
49064;PMS5003;34876;51.464;-0.150;2022-12-18T07:08:34;34;29;
49064;PMS5003;34876;51.464;-0.150;2022-12-18T07:11:03;35;34;
49064;PMS5003;34876;51.464;-0.150;2022-12-18T07:13:32;38;34;
49064;PMS5003;34876;51.464;-0.150;2022-12-18T07:16:05;31;28;
49064;PMS5003;34876;51.464;-0.150;2022-12-18T07:18:36;33;31;
49064;PMS5003;34876;51.464;-0.150;2022-12-18T07:21:05;32;28;
49064;PMS5003;34876;51.464;-0.150;2022-12-18T07:23:35;43;38;
49064;PMS5003;34876;51.464;-0.150;2022-12-18T07:26:05;43;36;
49064;PMS5003;34876;51.464;-0.150;2022-12-18T07:28:35;29;26;
49064;PMS5003;34876;51.464;-0.150;2022-12-18T07:31:04;30;30;
49064;PMS5003;34876;51.464;-0.150;2022-12-18T07:33:34;30;30;
49064;PMS5003;34876;51.464;-0.150;2022-12-18T07:36:03;31;26;
49064;PMS5003;34876;51.464;-0.150;2022-12-18T07:38:35;33;28;
49064;PMS5003;34876;51.464;-0.150;2022-12-18T07:41:04;32;28;
49064;PMS5003;34876;51.464;-0.150;2022-12-18T07:43:34;32;30;
49064;PMS5003;34876;51.464;-0.150;2022-12-18T07:46:04;34;28;
49064;PMS5003;34876;51.464;-0.150;2022-12-18T07:48:34;27;24;
49064;PMS5003;34876;51.464;-0.150;2022-12-18T07:51:04;29;26;
49064;PMS5003;34876;51.464;-0.150;2022-12-18T07:53:34;30;29;
49064;PMS5003;34876;51.464;-0.150;2022-12-18T07:56:05;33;29;
49064;PMS5003;34876;51.464;-0.150;2022-12-18T07:58:35;36;34;
49064;PMS5003;34876;51.464;-0.150;2022-12-18T08:01:05;31;28;
49064;PMS5003;34876;51.464;-0.150;2022-12-18T08:03:35;31;25;
49064;PMS5003;34876;51.464;-0.150;2022-12-18T08:06:06;34;29;
49064;PMS5003;34876;51.464;-0.150;2022-12-18T08:08:36;38;33;
49064;PMS5003;34876;51.464;-0.150;2022-12-18T08:11:05;25;25;
49064;PMS5003;34876;51.464;-0.150;2022-12-18T08:13:34;30;28;
49064;PMS5003;34876;51.464;-0.150;2022-12-18T08:16:03;31;27;
49064;PMS5003;34876;51.464;-0.150;2022-12-18T08:18:35;32;30;
49064;PMS5003;34876;51.464;-0.150;2022-12-18T08:21:07;29;26;
49064;PMS5003;34876;51.464;-0.150;2022-12-18T08:23:37;31;30;
49064;PMS5003;34876;51.464;-0.150;2022-12-18T08:26:06;30;27;
49064;PMS5003;34876;51.464;-0.150;2022-12-18T08:28:35;34;29;
49064;PMS5003;34876;51.464;-0.150;2022-12-18T08:31:04;26;26;
49064;PMS5003;34876;51.464;-0.150;2022-12-18T08:33:33;28;28;
49064;PMS5003;34876;51.464;-0.150;2022-12-18T08:36:03;28;28;
49064;PMS5003;34876;51.464;-0.150;2022-12-18T08:38:33;29;26;
49064;PMS5003;34876;51.464;-0.150;2022-12-18T08:41:02;26;25;
49064;PMS5003;34876;51.464;-0.150;2022-12-18T08:43:32;35;32;
49064;PMS5003;34876;51.464;-0.150;2022-12-18T08:46:01;26;22;
49064;PMS5003;34876;51.464;-0.150;2022-12-18T08:48:31;32;25;
49064;PMS5003;34876;51.464;-0.150;2022-12-18T08:51:00;24;22;
49064;PMS5003;34876;51.464;-0.150;2022-12-18T08:53:28;35;29;
49064;PMS5003;34876;51.464;-0.150;2022-12-18T08:55:57;31;25;
49064;PMS5003;34876;51.464;-0.150;2022-12-18T08:58:27;28;26;
49064;PMS5003;34876;51.464;-0.150;2022-12-18T09:00:59;32;28;
49064;PMS5003;34876;51.464;-0.150;2022-12-18T09:03:29;31;25;
49064;PMS5003;34876;51.464;-0.150;2022-12-18T09:05:58;33;27;
49064;PMS5003;34876;51.464;-0.150;2022-12-18T09:08:27;24;24;
49064;PMS5003;34876;51.464;-0.150;2022-12-18T09:10:56;32;28;
49064;PMS5003;34876;51.464;-0.150;2022-12-18T09:13:25;30;28;
49064;PMS5003;34876;51.464;-0.150;2022-12-18T09:15:54;38;31;
49064;PMS5003;34876;51.464;-0.150;2022-12-18T09:18:23;33;29;
49064;PMS5003;34876;51.464;-0.150;2022-12-18T09:20:52;29;26;
49064;PMS5003;34876;51.464;-0.150;2022-12-18T09:23:21;29;28;
49064;PMS5003;34876;51.464;-0.150;2022-12-18T09:25:50;28;26;
49064;PMS5003;34876;51.464;-0.150;2022-12-18T09:28:18;27;25;
49064;PMS5003;34876;51.464;-0.150;2022-12-18T09:30:48;27;24;
49064;PMS5003;34876;51.464;-0.150;2022-12-18T09:33:17;20;17;
49064;PMS5003;34876;51.464;-0.150;2022-12-18T09:35:46;24;22;
49064;PMS5003;34876;51.464;-0.150;2022-12-18T09:38:15;25;24;
49064;PMS5003;34876;51.464;-0.150;2022-12-18T09:40:47;23;23;
49064;PMS5003;34876;51.464;-0.150;2022-12-18T09:43:19;28;25;
49064;PMS5003;34876;51.464;-0.150;2022-12-18T09:45:53;23;20;
49064;PMS5003;34876;51.464;-0.150;2022-12-18T09:48:27;26;21;
49064;PMS5003;34876;51.464;-0.150;2022-12-18T09:50:59;23;22;
49064;PMS5003;34876;51.464;-0.150;2022-12-18T09:53:32;27;27;
49064;PMS5003;34876;51.464;-0.150;2022-12-18T09:56:05;28;24;
49064;PMS5003;34876;51.464;-0.150;2022-12-18T09:58:41;24;21;
49064;PMS5003;34876;51.464;-0.150;2022-12-18T10:01:15;22;21;
49064;PMS5003;34876;51.464;-0.150;2022-12-18T10:03:48;22;22;
49064;PMS5003;34876;51.464;-0.150;2022-12-18T10:06:20;28;24;
49064;PMS5003;34876;51.464;-0.150;2022-12-18T10:08:53;21;21;
49064;PMS5003;34876;51.464;-0.150;2022-12-18T10:11:32;23;21;
49064;PMS5003;34876;51.464;-0.150;2022-12-18T10:14:09;24;21;
49064;PMS5003;34876;51.464;-0.150;2022-12-18T10:16:47;22;20;
49064;PMS5003;34876;51.464;-0.150;2022-12-18T10:19:32;22;20;
49064;PMS5003;34876;51.464;-0.150;2022-12-18T10:22:11;22;20;
49064;PMS5003;34876;51.464;-0.150;2022-12-18T10:24:52;25;22;
49064;PMS5003;34876;51.464;-0.150;2022-12-18T10:27:28;23;22;
49064;PMS5003;34876;51.464;-0.150;2022-12-18T10:29:58;23;21;
49064;PMS5003;34876;51.464;-0.150;2022-12-18T10:32:29;25;22;
49064;PMS5003;34876;51.464;-0.150;2022-12-18T10:34:59;22;20;
49064;PMS5003;34876;51.464;-0.150;2022-12-18T10:37:28;26;23;
49064;PMS5003;34876;51.464;-0.150;2022-12-18T10:40:07;23;20;
49064;PMS5003;34876;51.464;-0.150;2022-12-18T10:42:38;22;19;
49064;PMS5003;34876;51.464;-0.150;2022-12-18T10:45:09;26;20;
49064;PMS5003;34876;51.464;-0.150;2022-12-18T10:47:41;25;24;
49064;PMS5003;34876;51.464;-0.150;2022-12-18T10:50:18;26;23;
49064;PMS5003;34876;51.464;-0.150;2022-12-18T10:52:54;22;21;
49064;PMS5003;34876;51.464;-0.150;2022-12-18T10:55:25;22;21;
49064;PMS5003;34876;51.464;-0.150;2022-12-18T10:58:12;18;17;
49064;PMS5003;34876;51.464;-0.150;2022-12-18T11:01:01;26;23;
49064;PMS5003;34876;51.464;-0.150;2022-12-18T11:03:34;21;20;
49064;PMS5003;34876;51.464;-0.150;2022-12-18T11:06:06;23;21;
49064;PMS5003;34876;51.464;-0.150;2022-12-18T11:08:37;25;23;
49064;PMS5003;34876;51.464;-0.150;2022-12-18T11:11:07;22;20;
49064;PMS5003;34876;51.464;-0.150;2022-12-18T11:13:48;24;21;
49064;PMS5003;34876;51.464;-0.150;2022-12-18T11:16:23;25;21;
49064;PMS5003;34876;51.464;-0.150;2022-12-18T11:18:52;21;21;
49064;PMS5003;34876;51.464;-0.150;2022-12-18T11:21:21;25;22;
49064;PMS5003;34876;51.464;-0.150;2022-12-18T11:23:53;18;17;
49064;PMS5003;34876;51.464;-0.150;2022-12-18T11:26:22;24;21;
49064;PMS5003;34876;51.464;-0.150;2022-12-18T11:29:07;27;22;
49064;PMS5003;34876;51.464;-0.150;2022-12-18T11:31:38;23;20;
49064;PMS5003;34876;51.464;-0.150;2022-12-18T11:34:08;21;20;
49064;PMS5003;34876;51.464;-0.150;2022-12-18T11:36:42;24;22;
49064;PMS5003;34876;51.464;-0.150;2022-12-18T11:39:15;18;16;
49064;PMS5003;34876;51.464;-0.150;2022-12-18T11:41:49;25;21;
49064;PMS5003;34876;51.464;-0.150;2022-12-18T11:44:22;22;19;
49064;PMS5003;34876;51.464;-0.150;2022-12-18T11:46:56;24;22;
49064;PMS5003;34876;51.464;-0.150;2022-12-18T11:49:32;25;22;
49064;PMS5003;34876;51.464;-0.150;2022-12-18T11:52:03;20;18;
49064;PMS5003;34876;51.464;-0.150;2022-12-18T11:54:45;22;20;
49064;PMS5003;34876;51.464;-0.150;2022-12-18T11:57:15;20;18;
49064;PMS5003;34876;51.464;-0.150;2022-12-18T11:59:59;24;24;
49064;PMS5003;34876;51.464;-0.150;2022-12-18T12:02:41;20;20;
49064;PMS5003;34876;51.464;-0.150;2022-12-18T12:05:28;22;20;
49064;PMS5003;34876;51.464;-0.150;2022-12-18T12:08:06;24;22;
49064;PMS5003;34876;51.464;-0.150;2022-12-18T12:10:46;25;22;
49064;PMS5003;34876;51.464;-0.150;2022-12-18T12:13:30;27;26;
49064;PMS5003;34876;51.464;-0.150;2022-12-18T12:16:13;22;21;
49064;PMS5003;34876;51.464;-0.150;2022-12-18T12:18:50;21;17;
49064;PMS5003;34876;51.464;-0.150;2022-12-18T12:21:33;24;20;
49064;PMS5003;34876;51.464;-0.150;2022-12-18T12:24:12;24;20;
49064;PMS5003;34876;51.464;-0.150;2022-12-18T12:26:56;25;22;
49064;PMS5003;34876;51.464;-0.150;2022-12-18T12:29:36;24;21;
49064;PMS5003;34876;51.464;-0.150;2022-12-18T12:32:19;23;19;
49064;PMS5003;34876;51.464;-0.150;2022-12-18T12:35:03;22;20;
49064;PMS5003;34876;51.464;-0.150;2022-12-18T12:37:42;22;21;
49064;PMS5003;34876;51.464;-0.150;2022-12-18T12:40:22;22;19;
49064;PMS5003;34876;51.464;-0.150;2022-12-18T12:42:55;21;20;
49064;PMS5003;34876;51.464;-0.150;2022-12-18T12:45:30;22;21;
49064;PMS5003;34876;51.464;-0.150;2022-12-18T12:48:05;26;24;
49064;PMS5003;34876;51.464;-0.150;2022-12-18T12:50:42;19;18;
49064;PMS5003;34876;51.464;-0.150;2022-12-18T12:53:15;22;22;
49064;PMS5003;34876;51.464;-0.150;2022-12-18T12:55:52;23;21;
49064;PMS5003;34876;51.464;-0.150;2022-12-18T12:58:25;18;18;
49064;PMS5003;34876;51.464;-0.150;2022-12-18T13:01:01;28;22;
49064;PMS5003;34876;51.464;-0.150;2022-12-18T13:03:41;22;21;
49064;PMS5003;34876;51.464;-0.150;2022-12-18T13:06:18;21;19;
49064;PMS5003;34876;51.464;-0.150;2022-12-18T13:08:55;21;17;
49064;PMS5003;34876;51.464;-0.150;2022-12-18T13:11:28;16;16;
49064;PMS5003;34876;51.464;-0.150;2022-12-18T13:14:00;16;16;
49064;PMS5003;34876;51.464;-0.150;2022-12-18T13:16:28;20;17;
49064;PMS5003;34876;51.464;-0.150;2022-12-18T13:18:59;25;21;
49064;PMS5003;34876;51.464;-0.150;2022-12-18T13:21:28;24;22;
49064;PMS5003;34876;51.464;-0.150;2022-12-18T13:24:13;23;19;
49064;PMS5003;34876;51.464;-0.150;2022-12-18T13:26:44;22;21;
49064;PMS5003;34876;51.464;-0.150;2022-12-18T13:29:15;24;20;
49064;PMS5003;34876;51.464;-0.150;2022-12-18T13:32:25;28;23;
49064;PMS5003;34876;51.464;-0.150;2022-12-18T13:36:01;24;21;
49064;PMS5003;34876;51.464;-0.150;2022-12-18T13:38:40;22;21;
49064;PMS5003;34876;51.464;-0.150;2022-12-18T13:41:26;26;22;
49064;PMS5003;34876;51.464;-0.150;2022-12-18T13:43:57;23;21;
49064;PMS5003;34876;51.464;-0.150;2022-12-18T13:46:43;23;20;
49064;PMS5003;34876;51.464;-0.150;2022-12-18T13:49:19;19;19;
49064;PMS5003;34876;51.464;-0.150;2022-12-18T13:51:52;27;22;
49064;PMS5003;34876;51.464;-0.150;2022-12-18T13:54:28;22;20;
49064;PMS5003;34876;51.464;-0.150;2022-12-18T13:57:01;19;17;
49064;PMS5003;34876;51.464;-0.150;2022-12-18T13:59:33;22;19;
49064;PMS5003;34876;51.464;-0.150;2022-12-18T14:02:07;20;18;
49064;PMS5003;34876;51.464;-0.150;2022-12-18T14:04:40;20;19;
49064;PMS5003;34876;51.464;-0.150;2022-12-18T14:07:10;24;23;
49064;PMS5003;34876;51.464;-0.150;2022-12-18T14:09:45;21;19;
49064;PMS5003;34876;51.464;-0.150;2022-12-18T14:12:17;25;23;
49064;PMS5003;34876;51.464;-0.150;2022-12-18T14:14:49;23;21;
49064;PMS5003;34876;51.464;-0.150;2022-12-18T14:17:21;21;20;
49064;PMS5003;34876;51.464;-0.150;2022-12-18T14:19:51;26;20;
49064;PMS5003;34876;51.464;-0.150;2022-12-18T14:22:22;25;20;
49064;PMS5003;34876;51.464;-0.150;2022-12-18T14:25:05;24;20;
49064;PMS5003;34876;51.464;-0.150;2022-12-18T14:27:43;23;20;
49064;PMS5003;34876;51.464;-0.150;2022-12-18T14:30:23;21;20;
49064;PMS5003;34876;51.464;-0.150;2022-12-18T14:33:03;24;19;
49064;PMS5003;34876;51.464;-0.150;2022-12-18T14:35:33;24;22;
49064;PMS5003;34876;51.464;-0.150;2022-12-18T14:38:22;28;25;
49064;PMS5003;34876;51.464;-0.150;2022-12-18T14:40:55;26;25;
49064;PMS5003;34876;51.464;-0.150;2022-12-18T14:43:26;22;21;
49064;PMS5003;34876;51.464;-0.150;2022-12-18T14:45:55;20;19;
49064;PMS5003;34876;51.464;-0.150;2022-12-18T14:48:32;25;22;
49064;PMS5003;34876;51.464;-0.150;2022-12-18T14:51:06;27;25;
49064;PMS5003;34876;51.464;-0.150;2022-12-18T14:53:45;31;29;
49064;PMS5003;34876;51.464;-0.150;2022-12-18T14:56:16;28;26;
49064;PMS5003;34876;51.464;-0.150;2022-12-18T14:58:50;20;17;
49064;PMS5003;34876;51.464;-0.150;2022-12-18T15:01:23;23;21;
49064;PMS5003;34876;51.464;-0.150;2022-12-18T15:03:56;26;24;
49064;PMS5003;34876;51.464;-0.150;2022-12-18T15:06:28;22;21;
49064;PMS5003;34876;51.464;-0.150;2022-12-18T15:09:03;19;18;
49064;PMS5003;34876;51.464;-0.150;2022-12-18T15:11:42;23;23;
49064;PMS5003;34876;51.464;-0.150;2022-12-18T15:14:22;24;24;
49064;PMS5003;34876;51.464;-0.150;2022-12-18T15:16:58;27;25;
49064;PMS5003;34876;51.464;-0.150;2022-12-18T15:19:33;28;25;
49064;PMS5003;34876;51.464;-0.150;2022-12-18T15:22:14;21;21;
49064;PMS5003;34876;51.464;-0.150;2022-12-18T15:24:47;24;21;
49064;PMS5003;34876;51.464;-0.150;2022-12-18T15:27:20;25;24;
49064;PMS5003;34876;51.464;-0.150;2022-12-18T15:29:59;23;21;
49064;PMS5003;34876;51.464;-0.150;2022-12-18T15:32:30;23;23;
49064;PMS5003;34876;51.464;-0.150;2022-12-18T15:35:09;30;28;
49064;PMS5003;34876;51.464;-0.150;2022-12-18T15:37:44;23;19;
49064;PMS5003;34876;51.464;-0.150;2022-12-18T15:40:14;21;19;
49064;PMS5003;34876;51.464;-0.150;2022-12-18T15:42:45;28;25;
49064;PMS5003;34876;51.464;-0.150;2022-12-18T15:45:16;26;24;
49064;PMS5003;34876;51.464;-0.150;2022-12-18T15:47:45;25;25;
49064;PMS5003;34876;51.464;-0.150;2022-12-18T15:50:15;30;27;
49064;PMS5003;34876;51.464;-0.150;2022-12-18T15:52:44;21;20;
49064;PMS5003;34876;51.464;-0.150;2022-12-18T15:55:15;31;28;
49064;PMS5003;34876;51.464;-0.150;2022-12-18T15:57:45;29;27;
49064;PMS5003;34876;51.464;-0.150;2022-12-18T16:00:14;20;19;
49064;PMS5003;34876;51.464;-0.150;2022-12-18T16:02:43;25;23;
49064;PMS5003;34876;51.464;-0.150;2022-12-18T16:05:13;22;17;
49064;PMS5003;34876;51.464;-0.150;2022-12-18T16:07:45;19;18;
49064;PMS5003;34876;51.464;-0.150;2022-12-18T16:10:15;25;23;
49064;PMS5003;34876;51.464;-0.150;2022-12-18T16:12:44;25;23;
49064;PMS5003;34876;51.464;-0.150;2022-12-18T16:15:14;21;19;
49064;PMS5003;34876;51.464;-0.150;2022-12-18T16:17:45;22;20;
49064;PMS5003;34876;51.464;-0.150;2022-12-18T16:20:17;25;22;
49064;PMS5003;34876;51.464;-0.150;2022-12-18T16:22:50;21;21;
49064;PMS5003;34876;51.464;-0.150;2022-12-18T16:25:20;29;22;
49064;PMS5003;34876;51.464;-0.150;2022-12-18T16:27:51;20;19;
49064;PMS5003;34876;51.464;-0.150;2022-12-18T16:30:22;30;26;
49064;PMS5003;34876;51.464;-0.150;2022-12-18T16:32:55;20;20;
49064;PMS5003;34876;51.464;-0.150;2022-12-18T16:35:25;27;25;
49064;PMS5003;34876;51.464;-0.150;2022-12-18T16:37:54;22;21;
49064;PMS5003;34876;51.464;-0.150;2022-12-18T16:40:22;30;29;